createdAt,value
2018-02-08T00:00:55.964Z,34.13
2018-02-08T00:03:23.505Z,35.60
2018-02-08T00:05:51.258Z,34.58
2018-02-08T00:08:18.796Z,35.95
2018-02-08T00:10:46.331Z,32.00
2018-02-08T00:13:13.882Z,34.13
2018-02-08T00:15:41.402Z,36.17
2018-02-08T00:18:09.158Z,33.70
2018-02-08T00:20:36.793Z,31.90
2018-02-08T00:23:04.318Z,34.25
2018-02-08T00:25:31.861Z,34.25
2018-02-08T00:27:59.376Z,34.45
2018-02-08T00:30:27.058Z,32.45
2018-02-08T00:32:54.583Z,33.35
2018-02-08T00:35:22.148Z,36.58
2018-02-08T00:37:49.693Z,35.63
2018-02-08T00:40:17.233Z,35.53
2018-02-08T00:42:45.059Z,35.33
2018-02-08T00:45:12.610Z,32.35
2018-02-08T00:47:40.138Z,35.78
2018-02-08T00:50:07.718Z,33.60
2018-02-08T00:52:35.235Z,34.47
2018-02-08T00:55:02.812Z,35.08
2018-02-08T00:57:30.338Z,36.58
2018-02-08T00:59:57.861Z,36.17
2018-02-08T01:02:25.403Z,35.53
2018-02-08T01:04:52.929Z,34.08
2018-02-08T01:07:20.490Z,36.10
2018-02-08T01:09:47.997Z,36.92
2018-02-08T01:12:15.525Z,35.33
2018-02-08T01:14:43.078Z,34.83
2018-02-08T01:17:10.600Z,38.80
2018-02-08T01:19:38.242Z,34.63
2018-02-08T01:22:05.757Z,35.25
2018-02-08T01:24:33.269Z,37.00
2018-02-08T01:27:00.821Z,35.55
2018-02-08T01:29:28.334Z,35.42
2018-02-08T01:31:56.054Z,34.85
2018-02-08T01:34:23.578Z,37.38
2018-02-08T01:36:51.099Z,36.92
2018-02-08T01:39:18.645Z,36.67
2018-02-08T01:41:46.208Z,37.97
2018-02-08T01:44:13.767Z,35.22
2018-02-08T01:46:41.318Z,39.05
2018-02-08T01:49:08.839Z,36.55
2018-02-08T01:51:36.381Z,36.15
2018-02-08T01:54:03.902Z,35.58
2018-02-08T01:56:31.633Z,37.00
2018-02-08T01:58:59.153Z,35.65
2018-02-08T02:01:26.670Z,37.00
2018-02-08T02:03:54.223Z,38.40
2018-02-08T02:06:21.746Z,37.70
2018-02-08T02:08:49.426Z,37.65
2018-02-08T02:11:16.950Z,38.03
2018-02-08T02:13:44.460Z,35.90
2018-02-08T02:16:12.001Z,37.45
2018-02-08T02:18:39.518Z,41.75
2018-02-08T02:21:07.227Z,37.67
2018-02-08T02:23:34.751Z,39.33
2018-02-08T02:26:02.270Z,39.28
2018-02-08T02:28:29.814Z,38.00
2018-02-08T02:30:57.348Z,38.88
2018-02-08T02:33:25.023Z,37.40
2018-02-08T02:35:52.550Z,39.30
2018-02-08T02:38:20.107Z,37.72
2018-02-08T02:40:47.654Z,38.83
2018-02-08T02:43:15.179Z,38.50
2018-02-08T02:45:42.913Z,41.37
2018-02-08T02:48:10.433Z,37.22
2018-02-08T02:50:37.951Z,38.80
2018-02-08T02:53:05.497Z,42.05
2018-02-08T02:55:33.029Z,38.85
2018-02-08T02:58:00.605Z,37.53
2018-02-08T03:00:28.188Z,37.05
2018-02-08T03:02:55.676Z,37.30
2018-02-08T03:05:23.226Z,39.60
2018-02-08T03:07:50.746Z,36.85
2018-02-08T03:10:18.477Z,41.88
2018-02-08T03:12:45.994Z,41.28
2018-02-08T03:15:13.509Z,38.45
2018-02-08T03:17:41.514Z,38.97
2018-02-08T03:20:09.021Z,36.72
2018-02-08T03:22:36.917Z,40.12
2018-02-08T03:25:04.443Z,36.40
2018-02-08T03:27:31.962Z,39.40
2018-02-08T03:29:59.505Z,38.30
2018-02-08T03:32:27.031Z,41.30
2018-02-08T03:34:54.817Z,39.97
2018-02-08T03:37:22.339Z,41.05
2018-02-08T03:39:49.856Z,42.03
2018-02-08T03:42:17.405Z,38.28
2018-02-08T03:44:44.926Z,37.53
2018-02-08T03:47:12.709Z,39.58
2018-02-08T03:49:40.230Z,41.22
2018-02-08T03:52:07.758Z,39.50
2018-02-08T03:54:35.306Z,40.45
2018-02-08T03:57:02.822Z,39.85
2018-02-08T03:59:30.381Z,41.95
2018-02-08T04:01:57.898Z,41.28
2018-02-08T04:04:25.422Z,39.60
2018-02-08T04:06:52.973Z,39.08
2018-02-08T04:09:20.488Z,37.35
2018-02-08T04:11:48.209Z,40.92
2018-02-08T04:14:15.725Z,37.97
2018-02-08T04:16:43.246Z,40.75
2018-02-08T04:19:10.794Z,40.55
2018-02-08T04:21:38.316Z,38.85
2018-02-08T04:24:06.105Z,41.25
2018-02-08T04:26:33.658Z,42.33
2018-02-08T04:29:01.169Z,42.60
2018-02-08T04:31:28.717Z,42.60
2018-02-08T04:33:56.259Z,42.58
2018-02-08T04:36:23.822Z,41.03
2018-02-08T04:39:03.048Z,43.70
2018-02-08T04:44:45.609Z,43.42
2018-02-08T04:47:29.917Z,44.15
2018-02-08T04:49:57.455Z,43.03
2018-02-08T04:52:24.970Z,42.03
2018-02-08T04:54:52.518Z,41.50
2018-02-08T04:57:20.034Z,43.47
2018-02-08T04:59:47.676Z,42.90
2018-02-08T05:02:15.988Z,43.45
2018-02-08T05:04:43.513Z,40.50
2018-02-08T05:07:11.078Z,42.78
2018-02-08T05:09:38.598Z,41.08
2018-02-08T05:12:06.145Z,44.10
2018-02-08T05:14:33.666Z,43.75
2018-02-08T05:17:01.187Z,45.65
2018-02-08T05:19:28.728Z,41.13
2018-02-08T05:21:56.265Z,41.65
2018-02-08T05:24:23.835Z,42.90
2018-02-08T05:26:51.358Z,42.97
2018-02-08T05:29:18.885Z,43.78
2018-02-08T05:31:46.439Z,48.42
2018-02-08T05:34:13.962Z,44.17
2018-02-08T05:36:41.717Z,43.60
2018-02-08T05:39:09.228Z,47.10
2018-02-08T05:41:36.746Z,43.80
2018-02-08T05:44:04.298Z,42.88
2018-02-08T05:46:31.813Z,45.65
2018-02-08T05:48:59.364Z,46.92
2018-02-08T05:51:26.912Z,47.20
2018-02-08T05:53:54.440Z,45.70
2018-02-08T05:56:21.977Z,46.28
2018-02-08T05:58:49.497Z,46.70
2018-02-08T06:01:17.058Z,45.90
2018-02-08T06:03:44.573Z,45.95
2018-02-08T06:06:12.094Z,45.20
2018-02-08T06:08:39.641Z,42.45
2018-02-08T06:11:07.157Z,47.38
2018-02-08T06:13:34.897Z,44.30
2018-02-08T06:16:02.439Z,44.85
2018-02-08T06:18:29.973Z,44.42
2018-02-08T06:20:57.517Z,46.30
2018-02-08T06:23:25.046Z,41.10
2018-02-08T06:25:52.905Z,48.30
2018-02-08T06:28:20.429Z,46.67
2018-02-08T06:30:47.954Z,45.20
2018-02-08T06:33:15.512Z,45.28
2018-02-08T06:35:43.035Z,46.15
2018-02-08T06:38:10.801Z,47.75
2018-02-08T06:40:38.329Z,46.40
2018-02-08T06:43:05.862Z,45.63
2018-02-08T06:45:33.409Z,45.90
2018-02-08T06:48:00.928Z,48.42
2018-02-08T06:50:28.599Z,47.30
2018-02-08T06:52:56.117Z,44.75
2018-02-08T06:55:23.649Z,44.10
2018-02-08T06:57:51.210Z,43.40
2018-02-08T07:00:18.729Z,45.08
2018-02-08T07:02:46.389Z,45.55
2018-02-08T07:05:13.938Z,42.60
2018-02-08T07:07:41.457Z,44.67
2018-02-08T07:10:09.034Z,43.20
2018-02-08T07:12:36.561Z,46.37
2018-02-08T07:15:04.109Z,45.60
2018-02-08T07:17:31.629Z,46.70
2018-02-08T07:19:59.186Z,45.10
2018-02-08T07:22:26.730Z,45.12
2018-02-08T07:24:54.249Z,45.35
2018-02-08T07:27:21.790Z,43.42
2018-02-08T07:29:49.305Z,41.20
2018-02-08T07:32:17.205Z,60.55
2018-02-08T07:34:44.754Z,62.85
2018-02-08T07:37:12.269Z,48.87
2018-02-08T07:39:39.820Z,44.47
2018-02-08T07:42:07.338Z,41.22
2018-02-08T07:44:34.997Z,45.17
2018-02-08T07:47:02.523Z,45.33
2018-02-08T07:49:30.050Z,46.22
2018-02-08T07:51:57.619Z,47.05
2018-02-08T07:54:25.138Z,50.15
2018-02-08T07:56:52.893Z,50.40
2018-02-08T07:59:20.413Z,45.65
2018-02-08T08:01:47.929Z,46.17
2018-02-08T08:04:15.482Z,42.78
2018-02-08T08:06:43.002Z,41.65
2018-02-08T08:09:10.798Z,46.88
2018-02-08T08:11:38.317Z,46.65
2018-02-08T08:14:05.838Z,44.38
2018-02-08T08:16:33.382Z,47.42
2018-02-08T08:19:00.897Z,42.17
2018-02-08T08:21:28.458Z,44.15
2018-02-08T08:23:55.974Z,44.22
2018-02-08T08:26:23.485Z,44.72
2018-02-08T08:28:51.038Z,43.20
2018-02-08T08:31:18.558Z,44.65
2018-02-08T08:33:46.281Z,45.33
2018-02-08T08:36:13.798Z,42.92
2018-02-08T08:38:41.317Z,41.92
2018-02-08T08:41:08.866Z,44.38
2018-02-08T08:43:36.397Z,40.90
2018-02-08T08:46:04.183Z,43.58
2018-02-08T08:48:31.773Z,41.35
2018-02-08T08:50:59.290Z,43.85
2018-02-08T08:53:26.830Z,43.92
2018-02-08T08:55:54.350Z,44.17
2018-02-08T08:58:22.061Z,43.90
2018-02-08T09:00:49.594Z,43.30
2018-02-08T09:03:17.104Z,44.33
2018-02-08T09:05:44.660Z,44.90
2018-02-08T09:08:12.187Z,44.42
2018-02-08T09:10:39.973Z,44.42
2018-02-08T09:13:07.495Z,44.83
2018-02-08T09:15:35.012Z,44.22
2018-02-08T09:18:02.608Z,44.13
2018-02-08T09:20:30.099Z,47.10
2018-02-08T09:22:57.981Z,44.50
2018-02-08T09:25:25.506Z,47.58
2018-02-08T09:27:53.040Z,43.45
2018-02-08T09:30:20.619Z,44.78
2018-02-08T09:32:48.177Z,45.03
2018-02-08T09:35:15.748Z,46.03
2018-02-08T09:37:43.283Z,46.47
2018-02-08T09:40:10.797Z,43.08
2018-02-08T09:42:38.985Z,43.95
2018-02-08T09:45:06.512Z,43.75
2018-02-08T09:47:34.081Z,45.80
2018-02-08T09:50:01.614Z,44.95
2018-02-08T09:52:29.189Z,47.55
2018-02-08T09:54:56.795Z,51.13
2018-02-08T09:57:24.346Z,49.00
2018-02-08T09:59:51.907Z,46.30
2018-02-08T10:02:19.433Z,47.08
2018-02-08T10:04:46.970Z,45.42
2018-02-08T10:07:14.522Z,44.10
2018-02-08T10:09:42.035Z,45.90
2018-02-08T10:12:09.786Z,46.30
2018-02-08T10:14:37.423Z,45.78
2018-02-08T10:17:05.001Z,45.85
2018-02-08T10:19:32.525Z,44.38
2018-02-08T10:22:00.958Z,47.00
2018-02-08T10:24:28.522Z,45.22
2018-02-08T10:26:56.048Z,46.37
2018-02-08T10:29:23.566Z,46.85
2018-02-08T10:31:51.125Z,44.53
2018-02-08T10:34:18.649Z,51.15
2018-02-08T10:36:46.601Z,45.78
2018-02-08T10:39:14.125Z,44.72
2018-02-08T10:41:41.757Z,46.63
2018-02-08T10:44:09.319Z,48.42
2018-02-08T10:46:36.960Z,47.03
2018-02-08T10:49:04.722Z,46.37
2018-02-08T10:51:32.245Z,46.47
2018-02-08T10:53:59.821Z,46.92
2018-02-08T10:56:27.398Z,45.53
2018-02-08T10:58:54.952Z,47.25
2018-02-08T11:01:22.921Z,49.70
2018-02-08T11:03:50.455Z,46.45
2018-02-08T11:06:18.155Z,43.38
2018-02-08T11:08:45.715Z,46.67
2018-02-08T11:11:13.258Z,46.65
2018-02-08T11:13:41.012Z,44.80
2018-02-08T11:16:08.534Z,46.67
2018-02-08T11:18:36.050Z,49.10
2018-02-08T11:21:03.614Z,47.70
2018-02-08T11:23:31.130Z,47.72
2018-02-08T11:25:58.694Z,47.38
2018-02-08T11:28:26.223Z,45.03
2018-02-08T11:30:54.035Z,46.65
2018-02-08T11:33:21.577Z,47.95
2018-02-08T11:35:49.165Z,47.35
2018-02-08T11:38:16.922Z,46.28
2018-02-08T11:40:44.445Z,47.25
2018-02-08T11:43:11.999Z,47.58
2018-02-08T11:45:39.555Z,46.90
2018-02-08T11:48:07.094Z,47.97
2018-02-08T11:50:34.942Z,49.50
2018-02-08T11:53:02.481Z,52.23
2018-02-08T11:55:30.023Z,51.63
2018-02-08T11:57:57.606Z,48.70
2018-02-08T12:00:25.129Z,48.47
2018-02-08T12:02:52.687Z,50.93
2018-02-08T12:05:20.210Z,57.00
2018-02-08T12:07:47.741Z,55.40
2018-02-08T12:10:15.296Z,57.23
2018-02-08T12:12:42.843Z,55.50
2018-02-08T12:15:10.607Z,56.20
2018-02-08T12:17:38.138Z,54.60
2018-02-08T12:20:05.665Z,55.70
2018-02-08T12:22:33.225Z,55.80
2018-02-08T12:25:00.750Z,55.80
2018-02-08T12:27:28.523Z,57.10
2018-02-08T12:29:56.083Z,56.80
2018-02-08T12:32:23.609Z,55.73
2018-02-08T12:34:51.170Z,57.50
2018-02-08T12:37:18.692Z,57.17
2018-02-08T12:39:46.702Z,55.27
2018-02-08T12:42:14.286Z,56.30
2018-02-08T12:44:42.159Z,55.03
2018-02-08T12:47:09.766Z,56.30
2018-02-08T12:49:37.291Z,58.10
2018-02-08T12:52:05.022Z,59.10
2018-02-08T12:54:32.555Z,56.37
2018-02-08T12:57:00.096Z,51.47
2018-02-08T12:59:28.545Z,52.63
2018-02-08T13:01:56.088Z,53.00
2018-02-08T13:04:23.666Z,53.03
2018-02-08T13:06:51.190Z,52.53
2018-02-08T13:09:18.791Z,51.63
2018-02-08T13:11:46.349Z,49.13
2018-02-08T13:14:13.980Z,49.47
2018-02-08T13:16:41.741Z,50.85
2018-02-08T13:19:09.270Z,50.25
2018-02-08T13:21:36.798Z,48.08
2018-02-08T13:24:04.642Z,49.35
2018-02-08T13:26:32.299Z,48.42
2018-02-08T13:29:00.986Z,52.30
2018-02-08T13:31:43.603Z,50.92
2018-02-08T13:34:11.322Z,51.67
2018-02-08T13:36:39.003Z,48.78
2018-02-08T13:39:06.688Z,47.53
2018-02-08T13:41:34.350Z,50.17
2018-02-08T13:44:01.902Z,47.83
2018-02-08T13:46:29.772Z,63.67
2018-02-08T13:48:58.824Z,47.38
2018-02-08T13:51:32.861Z,48.78
2018-02-08T13:54:01.709Z,48.72
2018-02-08T13:56:37.834Z,46.47
2018-02-08T14:02:14.788Z,43.45
2018-02-08T14:04:42.326Z,46.80
2018-02-08T14:07:09.869Z,48.50
2018-02-08T14:09:37.454Z,47.78
2018-02-08T14:12:05.005Z,46.35
2018-02-08T14:14:32.587Z,48.17
2018-02-08T14:17:00.109Z,48.92
2018-02-08T14:19:27.643Z,48.83
2018-02-08T14:21:55.202Z,45.40
2018-02-08T14:24:23.086Z,48.05
2018-02-08T14:26:50.645Z,47.10
2018-02-08T14:29:18.159Z,49.63
2018-02-08T14:31:45.685Z,49.28
2018-02-08T14:34:13.237Z,49.88
2018-02-08T14:36:40.763Z,50.65
2018-02-08T14:39:08.334Z,48.42
2018-02-08T14:41:35.853Z,48.83
2018-02-08T14:44:03.393Z,48.55
2018-02-08T14:46:30.933Z,49.05
2018-02-08T14:48:58.466Z,47.25
2018-02-08T14:51:26.205Z,45.22
2018-02-08T14:53:53.781Z,48.35
2018-02-08T14:56:21.374Z,47.90
2018-02-08T14:58:48.932Z,50.08
2018-02-08T15:01:16.474Z,48.28
2018-02-08T15:03:44.597Z,48.05
2018-02-08T15:06:12.203Z,48.70
2018-02-08T15:08:40.058Z,47.88
2018-02-08T15:11:08.028Z,45.78
2018-02-08T15:13:36.290Z,50.33
2018-02-08T15:16:04.581Z,46.35
2018-02-08T15:18:33.448Z,48.08
2018-02-08T15:21:01.341Z,48.83
2018-02-08T15:23:29.101Z,49.53
2018-02-08T15:25:56.822Z,50.88
2018-02-08T15:28:24.922Z,51.67
2018-02-08T15:30:52.605Z,50.78
2018-02-08T15:33:20.497Z,49.80
2018-02-08T15:35:48.432Z,48.38
2018-02-08T15:38:16.196Z,53.65
2018-02-08T15:40:44.121Z,49.05
2018-02-08T15:43:11.934Z,49.92
2018-02-08T15:45:40.003Z,50.35
2018-02-08T15:48:07.972Z,49.72
2018-02-08T15:50:36.245Z,56.72
2018-02-08T15:53:05.006Z,54.30
2018-02-08T15:55:32.694Z,53.22
2018-02-08T15:58:00.459Z,52.10
2018-02-08T16:00:28.429Z,55.08
2018-02-08T16:02:56.191Z,56.17
2018-02-08T16:05:24.776Z,52.83
2018-02-08T16:07:52.641Z,52.58
2018-02-08T16:10:20.303Z,54.72
2018-02-08T16:12:48.684Z,69.70
2018-02-08T16:15:16.509Z,134.43
2018-02-08T16:17:44.414Z,96.05
2018-02-08T16:20:12.282Z,74.53
2018-02-08T16:22:40.152Z,54.13
2018-02-08T16:25:07.803Z,53.08
2018-02-08T16:27:35.613Z,50.67
2018-02-08T16:30:03.633Z,53.47
2018-02-08T16:32:31.614Z,48.95
2018-02-08T16:34:59.301Z,48.00
2018-02-08T16:37:27.306Z,50.70
2018-02-08T16:39:55.213Z,48.60
2018-02-08T16:42:23.182Z,63.75
2018-02-08T16:44:51.049Z,52.67
2018-02-08T16:47:19.122Z,53.22
2018-02-08T16:49:47.265Z,51.05
2018-02-08T16:52:17.004Z,49.85
2018-02-08T16:54:45.177Z,50.90
2018-02-08T16:57:13.248Z,50.38
2018-02-08T16:59:41.080Z,51.08
2018-02-08T17:02:09.084Z,47.90
2018-02-08T17:04:37.053Z,51.55
2018-02-08T17:07:05.942Z,52.53
2018-02-08T17:09:33.912Z,49.80
2018-02-08T17:12:02.210Z,46.47
2018-02-08T17:14:29.953Z,50.17
2018-02-08T17:16:57.502Z,46.37
2018-02-08T17:19:25.125Z,50.45
2018-02-08T17:21:53.041Z,52.05
2018-02-08T17:24:20.804Z,49.53
2018-02-08T17:26:48.878Z,50.05
2018-02-08T17:29:16.741Z,48.40
2018-02-08T17:31:44.609Z,49.03
2018-02-08T17:34:12.437Z,50.95
2018-02-08T17:36:40.545Z,48.65
2018-02-08T17:39:08.992Z,48.80
2018-02-08T17:41:36.997Z,49.38
2018-02-08T17:44:04.969Z,47.45
2018-02-08T17:46:32.836Z,50.12
2018-02-08T17:49:01.839Z,48.58
2018-02-08T17:51:29.792Z,48.63
2018-02-08T17:53:57.675Z,49.47
2018-02-08T17:56:25.936Z,49.88
2018-02-08T17:58:54.211Z,47.92
2018-02-08T18:01:22.180Z,49.03
2018-02-08T18:03:50.149Z,50.60
2018-02-08T18:06:18.804Z,49.75
2018-02-08T18:08:47.521Z,48.65
2018-02-08T18:11:15.387Z,50.53
2018-02-08T18:13:43.254Z,48.63
2018-02-08T18:16:11.633Z,51.40
2018-02-08T18:18:39.600Z,52.40
2018-02-08T18:21:07.900Z,49.35
2018-02-08T18:23:35.845Z,50.33
2018-02-08T18:26:03.847Z,48.58
2018-02-08T18:28:31.783Z,46.08
2018-02-08T18:30:59.689Z,51.85
2018-02-08T18:33:27.826Z,48.95
2018-02-08T18:35:56.101Z,45.50
2018-02-08T18:38:23.966Z,47.03
2018-02-08T18:40:51.936Z,44.35
2018-02-08T18:43:19.802Z,45.15
2018-02-08T18:45:47.873Z,47.47
2018-02-08T18:48:15.750Z,48.05
2018-02-08T18:50:43.574Z,46.85
2018-02-08T18:53:11.575Z,47.62
2018-02-08T18:55:39.335Z,46.63
2018-02-08T18:58:07.512Z,47.50
2018-02-08T19:00:35.768Z,47.67
2018-02-08T19:03:03.757Z,48.83
2018-02-08T19:05:31.600Z,48.58
2018-02-08T19:07:59.401Z,47.03
2018-02-08T19:10:27.340Z,46.58
2018-02-08T19:12:55.736Z,45.15
2018-02-08T19:15:25.670Z,47.72
2018-02-08T19:17:53.590Z,45.67
2018-02-08T19:20:21.408Z,46.90
2018-02-08T19:22:50.597Z,50.53
2018-02-08T19:25:18.549Z,50.10
2018-02-08T19:27:46.459Z,54.95
2018-02-08T19:30:14.385Z,50.10
2018-02-08T19:32:42.254Z,48.47
2018-02-08T19:35:10.861Z,48.80
2018-02-08T19:37:39.214Z,53.00
2018-02-08T19:40:08.104Z,54.33
2018-02-08T19:42:38.024Z,48.05
2018-02-08T19:45:06.070Z,51.78
2018-02-08T19:47:34.201Z,54.90
2018-02-08T19:50:03.462Z,49.67
2018-02-08T19:52:31.466Z,47.72
2018-02-08T19:54:59.463Z,49.95
2018-02-08T19:57:27.782Z,50.08
2018-02-08T19:59:57.167Z,48.92
2018-02-08T20:02:25.047Z,51.30
2018-02-08T20:04:53.097Z,49.67
2018-02-08T20:07:21.066Z,49.65
2018-02-08T20:09:49.465Z,47.90
2018-02-08T20:12:17.642Z,48.22
2018-02-08T20:14:51.046Z,50.30
2018-02-08T20:17:19.212Z,49.25
2018-02-08T20:19:48.305Z,49.53
2018-02-08T20:22:16.539Z,52.05
2018-02-08T20:24:44.578Z,54.13
2018-02-08T20:27:12.798Z,48.33
2018-02-08T20:29:41.790Z,45.60
2018-02-08T20:32:09.956Z,49.72
2018-02-08T20:34:38.374Z,55.83
2018-02-08T20:37:06.367Z,54.67
2018-02-08T20:39:34.717Z,55.47
2018-02-08T20:42:02.891Z,53.63
2018-02-08T20:44:30.867Z,51.58
2018-02-08T20:46:59.443Z,48.20
2018-02-08T20:49:27.412Z,54.65
2018-02-08T20:51:55.184Z,52.05
2018-02-08T20:54:23.557Z,52.62
2018-02-08T20:56:51.423Z,49.30
2018-02-08T20:59:19.292Z,51.35
2018-02-08T21:01:47.381Z,46.70
2018-02-08T21:04:15.354Z,49.75
2018-02-08T21:06:44.918Z,49.95
2018-02-08T21:09:14.035Z,48.75
2018-02-08T21:11:42.549Z,50.80
2018-02-08T21:14:10.441Z,52.22
2018-02-08T21:16:39.329Z,48.05
2018-02-08T21:19:08.445Z,54.60
2018-02-08T21:21:36.544Z,50.83
2018-02-08T21:24:04.408Z,51.17
2018-02-08T21:26:32.271Z,52.20
2018-02-08T21:29:00.241Z,53.00
2018-02-08T21:31:28.453Z,53.22
2018-02-08T21:33:56.246Z,48.95
2018-02-08T21:36:24.112Z,49.70
2018-02-08T21:38:52.014Z,49.25
2018-02-08T21:41:19.844Z,51.40
2018-02-08T21:43:47.951Z,51.65
2018-02-08T21:46:15.600Z,49.15
2018-02-08T21:48:43.345Z,53.85
2018-02-08T21:51:11.346Z,54.58
2018-02-08T21:53:38.930Z,53.15
2018-02-08T21:56:06.759Z,53.33
2018-02-08T21:58:34.433Z,51.88
2018-02-08T22:01:02.040Z,43.15
2018-02-08T22:03:30.389Z,50.92
2018-02-08T22:05:57.950Z,46.47
2018-02-08T22:08:25.698Z,51.80
2018-02-08T22:10:53.269Z,48.55
2018-02-08T22:13:20.801Z,48.55
2018-02-08T22:15:48.358Z,50.78
2018-02-08T22:18:16.853Z,52.65
2018-02-08T22:20:44.770Z,53.55
2018-02-08T22:23:12.384Z,51.78
2018-02-08T22:25:39.935Z,48.42
2018-02-08T22:28:07.481Z,46.45
2018-02-08T22:30:35.490Z,51.45
2018-02-08T22:33:03.037Z,52.25
2018-02-08T22:35:30.557Z,50.80
2018-02-08T22:37:58.082Z,48.45
2018-02-08T22:40:25.705Z,48.72
2018-02-08T22:42:53.261Z,46.60
2018-02-08T22:45:20.821Z,48.80
2018-02-08T22:47:48.793Z,50.75
2018-02-08T22:50:16.343Z,55.10
2018-02-08T22:52:46.736Z,48.30
2018-02-08T22:55:14.261Z,46.20
2018-02-08T22:57:42.311Z,49.03
2018-02-08T23:00:09.850Z,51.30
2018-02-08T23:02:37.396Z,48.42
2018-02-08T23:05:05.090Z,49.13
2018-02-08T23:07:32.678Z,49.28
2018-02-08T23:10:00.397Z,49.20
2018-02-08T23:12:27.917Z,47.65
2018-02-08T23:14:55.438Z,47.22
2018-02-08T23:17:22.990Z,47.95
2018-02-08T23:19:50.521Z,48.95
2018-02-08T23:22:18.082Z,49.75
2018-02-08T23:24:45.665Z,47.55
2018-02-08T23:27:13.165Z,48.83
2018-02-08T23:29:40.712Z,51.78
2018-02-08T23:32:08.267Z,49.25
2018-02-08T23:34:36.091Z,46.15
2018-02-08T23:37:03.612Z,47.00
2018-02-08T23:39:31.142Z,48.47
2018-02-08T23:42:01.036Z,47.08
2018-02-08T23:44:28.585Z,48.60
2018-02-08T23:46:56.399Z,49.35
2018-02-08T23:49:25.353Z,47.03
2018-02-08T23:51:53.629Z,44.88
2018-02-08T23:54:21.217Z,47.88
2018-02-08T23:56:48.739Z,45.65
2018-02-08T23:59:16.432Z,47.05
